createdAt,value
2022-08-07T00:00:50.569Z,11.69
2022-08-07T00:02:36.593Z,11.77
2022-08-07T00:02:50.542Z,11.70
2022-08-07T00:03:49.507Z,11.70
2022-08-07T00:04:49.571Z,11.74
2022-08-07T00:05:49.486Z,11.66
2022-08-07T00:06:51.696Z,11.64
2022-08-07T00:07:50.629Z,11.70
2022-08-07T00:08:50.479Z,11.70
2022-08-07T00:09:59.223Z,11.72
2022-08-07T00:10:57.241Z,11.74
2022-08-07T00:11:56.118Z,11.72
2022-08-07T00:12:57.958Z,11.63
2022-08-07T00:13:50.419Z,11.59
2022-08-07T00:14:49.384Z,11.60
2022-08-07T00:15:51.251Z,11.60
2022-08-07T00:16:49.360Z,11.62
2022-08-07T00:17:49.354Z,11.64
2022-08-07T00:18:49.339Z,11.69
2022-08-07T00:20:00.883Z,11.70
2022-08-07T00:20:49.490Z,11.63
2022-08-07T00:21:57.026Z,11.64
2022-08-07T00:22:51.620Z,11.62
2022-08-07T00:23:49.284Z,11.56
2022-08-07T00:24:49.274Z,11.46
2022-08-07T00:25:58.244Z,11.49
2022-08-07T00:27:06.167Z,11.49
2022-08-07T00:27:53.125Z,11.46
2022-08-07T00:28:55.606Z,11.44
2022-08-07T00:29:50.238Z,11.38
2022-08-07T00:30:49.205Z,11.30
2022-08-07T00:31:49.231Z,11.31
2022-08-07T00:32:49.184Z,11.31
2022-08-07T00:33:49.170Z,11.28
2022-08-07T00:34:49.162Z,11.28
2022-08-07T00:35:49.353Z,11.27
2022-08-07T00:36:49.137Z,11.27
2022-08-07T00:37:49.127Z,11.30
2022-08-07T00:38:49.119Z,11.36
2022-08-07T00:39:54.564Z,11.42
2022-08-07T00:40:49.137Z,11.42
2022-08-07T00:41:53.809Z,11.42
2022-08-07T00:42:50.284Z,11.41
2022-08-07T00:44:00.412Z,11.38
2022-08-07T00:44:49.185Z,11.30
2022-08-07T00:45:49.160Z,11.30
2022-08-07T00:46:49.158Z,11.28
2022-08-07T00:48:08.277Z,11.27
2022-08-07T00:48:49.749Z,11.31
2022-08-07T00:50:20.545Z,11.30
2022-08-07T00:50:51.259Z,11.23
2022-08-07T00:51:56.697Z,11.27
2022-08-07T00:52:48.962Z,11.36
2022-08-07T00:53:50.466Z,11.39
2022-08-07T00:54:53.850Z,11.41
2022-08-07T00:56:02.765Z,11.41
2022-08-07T00:56:50.146Z,11.36
2022-08-07T00:57:55.366Z,11.30
2022-08-07T00:58:50.138Z,11.26
2022-08-07T00:59:48.884Z,11.23
2022-08-07T01:00:53.432Z,11.28
2022-08-07T01:01:48.931Z,11.26
2022-08-07T01:02:48.855Z,11.19
2022-08-07T01:03:57.093Z,11.17
2022-08-07T01:04:49.853Z,11.09
2022-08-07T01:05:53.520Z,11.02
2022-08-07T01:06:48.810Z,10.99
2022-08-07T01:07:49.150Z,11.02
2022-08-07T01:08:53.946Z,10.99
2022-08-07T01:10:04.254Z,11.03
2022-08-07T01:10:54.407Z,11.08
2022-08-07T01:12:09.144Z,11.09
2022-08-07T01:12:53.894Z,11.06
2022-08-07T01:13:55.920Z,11.13
2022-08-07T01:14:48.723Z,11.09
2022-08-07T01:16:04.985Z,11.11
2022-08-07T01:16:48.699Z,11.09
2022-08-07T01:17:48.687Z,11.11
2022-08-07T01:18:48.678Z,11.06
2022-08-07T01:19:52.391Z,11.08
2022-08-07T01:20:57.433Z,11.06
2022-08-07T01:21:48.645Z,11.08
2022-08-07T01:22:54.349Z,11.05
2022-08-07T01:23:48.625Z,11.05
2022-08-07T01:24:48.613Z,11.01
2022-08-07T01:25:55.146Z,10.98
2022-08-07T01:26:52.270Z,10.94
2022-08-07T01:27:51.459Z,10.95
2022-08-07T01:28:48.654Z,10.91
2022-08-07T01:29:48.555Z,10.90
2022-08-07T01:30:48.547Z,10.76
2022-08-07T01:31:48.840Z,10.75
2022-08-07T01:32:48.526Z,10.80
2022-08-07T01:33:55.484Z,10.81
2022-08-07T01:34:49.210Z,10.81
2022-08-07T01:35:54.055Z,10.80
2022-08-07T01:36:52.644Z,10.80
2022-08-07T01:37:49.493Z,10.75
2022-08-07T01:38:48.461Z,10.72
2022-08-07T01:39:48.527Z,10.69
2022-08-07T01:40:48.437Z,10.63
2022-08-07T01:42:01.434Z,10.69
2022-08-07T01:42:57.602Z,10.65
2022-08-07T01:43:48.405Z,10.60
2022-08-07T01:44:48.394Z,10.63
2022-08-07T01:45:48.389Z,10.63
2022-08-07T01:46:49.395Z,10.62
2022-08-07T01:48:21.030Z,10.63
2022-08-07T01:48:49.373Z,10.66
2022-08-07T01:49:48.337Z,10.51
2022-08-07T01:50:48.329Z,10.51
2022-08-07T01:52:04.071Z,10.52
2022-08-07T01:52:54.098Z,10.55
2022-08-07T01:54:08.879Z,10.60
2022-08-07T01:54:48.284Z,10.65
2022-08-07T01:55:48.272Z,10.63
2022-08-07T01:56:49.305Z,10.60
2022-08-07T01:58:06.136Z,10.57
2022-08-07T01:58:48.241Z,10.51
2022-08-07T01:59:48.346Z,10.47
2022-08-07T02:00:49.260Z,10.47
2022-08-07T02:01:59.942Z,10.42
2022-08-07T02:03:16.010Z,10.43
2022-08-07T02:03:50.875Z,10.47
2022-08-07T02:04:56.473Z,10.54
2022-08-07T02:05:59.964Z,10.58
2022-08-07T02:06:48.153Z,10.51
2022-08-07T02:07:51.115Z,10.52
2022-08-07T02:08:48.130Z,10.51
2022-08-07T02:09:52.721Z,10.52
2022-08-07T02:10:48.667Z,10.52
2022-08-07T02:12:03.572Z,10.44
2022-08-07T02:12:50.257Z,10.42
2022-08-07T02:13:57.478Z,10.42
2022-08-07T02:14:48.064Z,10.42
2022-08-07T02:15:48.051Z,10.42
2022-08-07T02:16:48.049Z,10.38
2022-08-07T02:17:49.534Z,10.29
2022-08-07T02:18:48.023Z,10.29
2022-08-07T02:20:07.241Z,10.29
2022-08-07T02:20:49.022Z,10.28
2022-08-07T02:21:56.191Z,10.29
2022-08-07T02:22:54.924Z,10.32
2022-08-07T02:23:47.965Z,10.29
2022-08-07T02:24:48.609Z,10.28
2022-08-07T02:26:30.636Z,10.25
2022-08-07T02:26:47.933Z,10.16
2022-08-07T02:27:52.183Z,10.10
2022-08-07T02:28:47.934Z,10.13
2022-08-07T02:29:53.940Z,10.17
2022-08-07T02:30:47.889Z,10.26
2022-08-07T02:31:48.586Z,10.17
2022-08-07T02:33:00.593Z,10.13
2022-08-07T02:34:01.888Z,10.09
2022-08-07T02:34:48.966Z,10.09
2022-08-07T02:36:30.917Z,10.13
2022-08-07T02:36:47.824Z,10.11
2022-08-07T02:37:47.811Z,9.99
2022-08-07T02:38:50.660Z,9.98
2022-08-07T02:40:02.572Z,9.92
2022-08-07T02:40:50.441Z,9.86
2022-08-07T02:41:54.268Z,9.91
2022-08-07T02:42:48.782Z,9.91
2022-08-07T02:43:49.097Z,9.78
2022-08-07T02:44:48.239Z,9.80
2022-08-07T02:45:58.635Z,9.77
2022-08-07T02:46:52.849Z,9.80
2022-08-07T02:47:49.164Z,9.83
2022-08-07T02:48:54.945Z,9.91
2022-08-07T02:49:57.852Z,9.93
2022-08-07T02:50:48.697Z,9.92
2022-08-07T02:51:51.977Z,9.89
2022-08-07T02:52:48.641Z,9.85
2022-08-07T02:53:47.635Z,9.91
2022-08-07T02:54:47.630Z,9.88
2022-08-07T02:56:04.025Z,9.88
2022-08-07T02:56:48.627Z,9.91
2022-08-07T02:57:47.593Z,9.91
2022-08-07T02:58:48.344Z,9.93
2022-08-07T02:59:55.125Z,9.93
2022-08-07T03:00:48.619Z,9.98
2022-08-07T03:01:47.575Z,9.96
2022-08-07T03:02:54.330Z,9.85
2022-08-07T03:03:49.815Z,9.77
2022-08-07T03:04:47.519Z,9.70
2022-08-07T03:05:47.503Z,9.71
2022-08-07T03:06:48.359Z,9.65
2022-08-07T03:08:05.053Z,9.56
2022-08-07T03:08:48.496Z,9.48
2022-08-07T03:09:51.980Z,9.53
2022-08-07T03:10:47.449Z,9.55
2022-08-07T03:11:51.650Z,9.56
2022-08-07T03:12:47.428Z,9.60
2022-08-07T03:13:49.685Z,9.65
2022-08-07T03:14:51.984Z,9.65
2022-08-07T03:15:56.696Z,9.59
2022-08-07T03:16:47.390Z,9.56
2022-08-07T03:17:53.396Z,9.53
2022-08-07T03:18:48.386Z,9.52
2022-08-07T03:19:55.063Z,9.50
2022-08-07T03:20:48.363Z,9.49
2022-08-07T03:21:50.874Z,9.44
2022-08-07T03:22:50.295Z,9.44
2022-08-07T03:24:20.591Z,9.44
2022-08-07T03:24:47.295Z,9.45
2022-08-07T03:25:47.282Z,9.53
2022-08-07T03:26:57.851Z,9.60
2022-08-07T03:27:59.712Z,9.65
2022-08-07T03:28:48.279Z,9.63
2022-08-07T03:29:50.546Z,9.67
2022-08-07T03:30:47.229Z,9.71
2022-08-07T03:31:49.952Z,9.71
2022-08-07T03:32:57.062Z,9.74
2022-08-07T03:33:47.195Z,9.75
2022-08-07T03:35:01.063Z,9.75
2022-08-07T03:35:50.110Z,9.73
2022-08-07T03:36:47.163Z,9.71
2022-08-07T03:37:54.054Z,9.60
2022-08-07T03:38:47.149Z,9.60
2022-08-07T03:40:13.106Z,9.59
2022-08-07T03:40:47.163Z,9.59
2022-08-07T03:41:47.719Z,9.56
2022-08-07T03:42:47.095Z,9.50
2022-08-07T03:43:57.294Z,9.48
2022-08-07T03:44:53.496Z,9.44
2022-08-07T03:45:47.687Z,9.41
2022-08-07T03:47:13.441Z,9.34
2022-08-07T03:47:51.215Z,9.38
2022-08-07T03:49:02.712Z,9.44
2022-08-07T03:49:47.701Z,9.50
2022-08-07T03:50:55.662Z,9.55
2022-08-07T03:52:01.208Z,9.53
2022-08-07T03:52:48.011Z,9.48
2022-08-07T03:54:01.952Z,9.44
2022-08-07T03:54:54.818Z,9.42
2022-08-07T03:55:58.188Z,9.42
2022-08-07T03:57:03.728Z,9.38
2022-08-07T03:58:33.677Z,9.40
2022-08-07T03:59:09.712Z,9.40
2022-08-07T04:00:01.701Z,9.32
2022-08-07T04:00:54.008Z,9.32
2022-08-07T04:01:46.977Z,9.35
2022-08-07T04:02:47.475Z,9.40
2022-08-07T04:03:49.735Z,9.42
2022-08-07T04:04:47.881Z,9.40
2022-08-07T04:05:46.842Z,9.44
2022-08-07T04:06:50.872Z,9.42
2022-08-07T04:07:47.716Z,9.44
2022-08-07T04:08:46.812Z,9.48
2022-08-07T04:09:50.512Z,9.50
2022-08-07T04:10:54.832Z,9.55
2022-08-07T04:12:23.946Z,9.56
2022-08-07T04:12:47.790Z,9.58
2022-08-07T04:14:09.945Z,9.56
2022-08-07T04:14:47.739Z,9.60
2022-08-07T04:15:49.138Z,9.59
2022-08-07T04:16:58.705Z,9.50
2022-08-07T04:18:56.815Z,9.48
2022-08-07T04:18:59.130Z,9.44
2022-08-07T04:19:52.682Z,9.49
2022-08-07T04:20:54.759Z,9.45
2022-08-07T04:21:58.841Z,9.52
2022-08-07T04:22:53.817Z,9.55
2022-08-07T04:24:07.233Z,9.55
2022-08-07T04:24:47.658Z,9.52
2022-08-07T04:25:46.625Z,9.55
2022-08-07T04:26:46.613Z,9.52
2022-08-07T04:28:00.280Z,9.58
2022-08-07T04:28:46.588Z,9.59
2022-08-07T04:29:48.822Z,9.67
2022-08-07T04:30:57.400Z,9.68
2022-08-07T04:32:03.085Z,9.68
2022-08-07T04:32:47.798Z,9.60
2022-08-07T04:33:46.540Z,9.55
2022-08-07T04:34:47.549Z,9.59
2022-08-07T04:35:50.512Z,9.60
2022-08-07T04:36:48.866Z,9.60
2022-08-07T04:38:03.520Z,9.68
2022-08-07T04:38:47.506Z,9.73
2022-08-07T04:39:49.745Z,9.75
2022-08-07T04:40:51.828Z,9.75
2022-08-07T04:41:48.280Z,9.81
2022-08-07T04:42:46.438Z,9.80
2022-08-07T04:44:09.827Z,9.86
2022-08-07T04:44:54.616Z,9.93
2022-08-07T04:46:00.913Z,9.96
2022-08-07T04:47:04.612Z,9.96
2022-08-07T04:48:00.759Z,9.98
2022-08-07T04:48:47.394Z,9.98
2022-08-07T04:49:57.384Z,10.01
2022-08-07T04:50:52.881Z,10.06
2022-08-07T04:51:46.339Z,10.11
2022-08-07T04:52:51.002Z,10.13
2022-08-07T04:54:05.535Z,10.11
2022-08-07T04:54:50.711Z,10.18
2022-08-07T04:58:11.440Z,10.18
2022-08-07T04:58:15.262Z,10.22
2022-08-07T04:58:24.423Z,10.17
2022-08-07T05:00:11.170Z,10.28
2022-08-07T05:00:46.300Z,10.32
2022-08-07T05:01:46.226Z,10.32
2022-08-07T05:02:46.220Z,10.43
2022-08-07T05:04:06.725Z,10.49
2022-08-07T05:04:50.166Z,10.72
2022-08-07T05:05:53.028Z,10.98
2022-08-07T05:06:51.653Z,11.27
2022-08-07T05:07:48.492Z,11.54
2022-08-07T05:09:01.206Z,11.79
2022-08-07T05:09:47.167Z,12.01
2022-08-07T05:10:46.130Z,12.19
2022-08-07T05:11:58.210Z,12.38
2022-08-07T05:12:51.486Z,12.52
2022-08-07T05:14:53.975Z,12.73
2022-08-07T05:14:54.969Z,12.87
2022-08-07T05:15:47.101Z,12.96
2022-08-07T05:16:46.068Z,13.12
2022-08-07T05:17:52.204Z,13.22
2022-08-07T05:18:47.067Z,13.35
2022-08-07T05:19:46.034Z,13.41
2022-08-07T05:20:46.026Z,13.54
2022-08-07T05:22:00.035Z,13.61
2022-08-07T05:22:45.997Z,13.66
2022-08-07T05:23:45.984Z,13.80
2022-08-07T05:24:45.975Z,13.88
2022-08-07T05:26:11.611Z,13.96
2022-08-07T05:26:47.178Z,14.11
2022-08-07T05:28:03.307Z,14.19
2022-08-07T05:28:48.420Z,14.21
2022-08-07T05:29:51.266Z,14.27
2022-08-07T05:30:47.222Z,14.30
2022-08-07T05:31:47.628Z,14.31
2022-08-07T05:32:45.890Z,14.38
2022-08-07T05:34:01.283Z,14.44
2022-08-07T05:34:46.909Z,14.53
2022-08-07T05:35:45.856Z,14.56
2022-08-07T05:36:48.956Z,14.63
2022-08-07T05:37:45.834Z,14.72
2022-08-07T05:39:00.107Z,14.78
2022-08-07T05:40:18.143Z,14.80
2022-08-07T05:40:51.383Z,14.82
2022-08-07T05:42:02.657Z,14.82
2022-08-07T05:42:56.204Z,14.82
2022-08-07T05:44:07.537Z,14.74
2022-08-07T05:44:46.484Z,14.64
2022-08-07T05:45:48.312Z,14.63
2022-08-07T05:46:45.730Z,14.57
2022-08-07T05:48:01.331Z,14.52
2022-08-07T05:48:58.048Z,14.56
2022-08-07T05:49:45.702Z,14.69
2022-08-07T05:50:45.688Z,14.86
2022-08-07T05:51:46.496Z,14.93
2022-08-07T05:52:45.695Z,14.94
2022-08-07T05:54:13.598Z,14.97
2022-08-07T05:54:56.087Z,15.12
2022-08-07T05:56:02.390Z,15.18
2022-08-07T05:56:45.626Z,15.33
2022-08-07T05:57:45.616Z,15.38
2022-08-07T05:58:49.417Z,15.44
2022-08-07T05:59:56.063Z,15.55
2022-08-07T06:00:46.318Z,15.66
2022-08-07T06:01:45.602Z,15.78
2022-08-07T06:02:45.558Z,15.85
2022-08-07T06:03:56.902Z,15.86
2022-08-07T06:04:45.571Z,15.86
2022-08-07T06:05:49.079Z,15.74
2022-08-07T06:06:47.877Z,15.68
2022-08-07T06:08:13.834Z,15.66
2022-08-07T06:08:46.720Z,15.52
2022-08-07T06:10:05.035Z,15.43
2022-08-07T06:10:46.510Z,15.33
2022-08-07T06:11:45.463Z,15.28
2022-08-07T06:12:45.449Z,15.16
2022-08-07T06:14:11.795Z,15.09
2022-08-07T06:14:49.341Z,15.04
2022-08-07T06:15:45.463Z,15.07
2022-08-07T06:16:45.417Z,15.11
2022-08-07T06:17:50.693Z,15.13
2022-08-07T06:18:51.735Z,15.23
2022-08-07T06:19:58.338Z,15.34
2022-08-07T06:20:49.564Z,15.37
2022-08-07T06:22:11.654Z,15.38
2022-08-07T06:23:01.703Z,15.37
2022-08-07T06:24:38.625Z,15.44
2022-08-07T06:24:57.756Z,15.48
2022-08-07T06:25:53.975Z,15.51
2022-08-07T06:26:45.293Z,15.49
2022-08-07T06:28:01.518Z,15.56
2022-08-07T06:28:45.298Z,15.58
2022-08-07T06:29:45.288Z,15.58
2022-08-07T06:30:46.171Z,15.64
2022-08-07T06:31:50.058Z,15.66
2022-08-07T06:32:45.231Z,15.74
2022-08-07T06:33:45.219Z,15.74
2022-08-07T06:34:45.562Z,15.78
2022-08-07T06:35:47.639Z,15.78
2022-08-07T06:36:45.185Z,15.88
2022-08-07T06:37:45.540Z,15.95
2022-08-07T06:38:58.414Z,16.07
2022-08-07T06:40:16.205Z,16.13
2022-08-07T06:40:45.876Z,16.14
2022-08-07T06:42:01.138Z,16.25
2022-08-07T06:42:46.649Z,16.29
2022-08-07T06:43:46.137Z,16.37
2022-08-07T06:44:45.099Z,16.54
2022-08-07T06:45:45.088Z,16.52
2022-08-07T06:46:53.361Z,16.54
2022-08-07T06:47:57.339Z,16.54
2022-08-07T06:48:46.078Z,16.57
2022-08-07T06:49:51.110Z,16.62
2022-08-07T06:50:47.858Z,16.84
2022-08-07T06:51:49.551Z,17.10
2022-08-07T06:52:45.203Z,17.18
2022-08-07T06:55:29.607Z,17.21
2022-08-07T06:55:34.340Z,17.39
2022-08-07T06:56:00.436Z,17.42
2022-08-07T06:56:49.842Z,17.60
2022-08-07T06:57:52.117Z,17.77
2022-08-07T07:00:11.913Z,18.32
2022-08-07T07:00:15.098Z,17.99
2022-08-07T07:00:45.945Z,18.59
2022-08-07T07:01:50.635Z,18.75
2022-08-07T07:02:54.569Z,18.84
2022-08-07T07:03:50.009Z,19.06
2022-08-07T07:04:55.165Z,19.45
2022-08-07T07:06:05.362Z,19.62
2022-08-07T07:07:00.613Z,19.75
2022-08-07T07:07:59.550Z,19.94
2022-08-07T07:08:46.624Z,20.02
2022-08-07T07:09:44.824Z,20.17
2022-08-07T07:10:54.951Z,20.16
2022-08-07T07:12:08.936Z,20.26
2022-08-07T07:12:48.903Z,20.26
2022-08-07T07:13:57.833Z,20.53
2022-08-07T07:14:45.792Z,20.72
2022-08-07T07:15:44.802Z,20.72
2022-08-07T07:16:50.578Z,20.87
2022-08-07T07:17:45.764Z,20.93
2022-08-07T07:18:48.136Z,20.97
2022-08-07T07:19:57.522Z,21.16
2022-08-07T07:20:44.704Z,21.40
2022-08-07T07:22:05.152Z,21.52
2022-08-07T07:24:08.316Z,21.68
2022-08-07T07:24:09.176Z,21.82
2022-08-07T07:24:58.369Z,21.75
2022-08-07T07:26:35.183Z,21.86
2022-08-07T07:26:49.582Z,21.93
2022-08-07T07:27:55.557Z,21.82
2022-08-07T07:29:28.522Z,21.59
2022-08-07T07:30:09.118Z,21.63
2022-08-07T07:30:44.598Z,21.74
2022-08-07T07:31:46.828Z,21.77
2022-08-07T07:32:44.576Z,21.75
2022-08-07T07:33:44.567Z,21.64
2022-08-07T07:34:45.870Z,21.66
2022-08-07T07:36:04.087Z,21.75
2022-08-07T07:36:48.015Z,21.51
2022-08-07T07:37:52.507Z,21.68
2022-08-07T07:38:46.126Z,21.75
2022-08-07T07:39:52.423Z,21.73
2022-08-07T07:40:44.785Z,21.70
2022-08-07T07:41:50.789Z,21.70
2022-08-07T07:42:51.067Z,21.56
2022-08-07T07:44:14.614Z,21.93
2022-08-07T07:44:45.586Z,21.86
2022-08-07T07:46:39.830Z,21.71
2022-08-07T07:46:55.757Z,21.75
2022-08-07T07:47:52.627Z,22.11
2022-08-07T07:48:45.931Z,22.51
2022-08-07T07:50:33.220Z,22.79
2022-08-07T07:50:45.473Z,22.78
2022-08-07T07:51:57.808Z,22.78
2022-08-07T07:52:46.946Z,22.69
2022-08-07T07:53:52.521Z,22.70
2022-08-07T07:54:51.193Z,22.66
2022-08-07T07:55:54.922Z,22.41
2022-08-07T07:56:44.431Z,22.24
2022-08-07T07:57:52.388Z,22.14
2022-08-07T07:58:44.679Z,22.59
2022-08-07T07:59:52.223Z,23.01
2022-08-07T08:00:47.784Z,23.26
2022-08-07T08:02:02.378Z,23.50
2022-08-07T08:03:01.295Z,23.64
2022-08-07T08:04:10.231Z,23.75
2022-08-07T08:04:45.328Z,23.79
2022-08-07T08:05:55.247Z,23.92
2022-08-07T08:06:52.323Z,24.18
2022-08-07T08:07:51.441Z,24.34
2022-08-07T08:08:44.193Z,24.48
2022-08-07T08:09:52.369Z,24.61
2022-08-07T08:10:45.258Z,24.67
2022-08-07T08:12:00.120Z,24.46
2022-08-07T08:12:52.571Z,24.44
2022-08-07T08:13:53.890Z,24.63
2022-08-07T08:14:45.155Z,24.64
2022-08-07T08:15:59.214Z,24.86
2022-08-07T08:16:50.576Z,24.90
2022-08-07T08:17:57.687Z,25.05
2022-08-07T08:18:45.194Z,25.17
2022-08-07T08:20:17.523Z,25.09
2022-08-07T08:20:44.075Z,25.14
2022-08-07T08:21:59.143Z,24.98
2022-08-07T08:22:55.829Z,25.16
2022-08-07T08:23:45.139Z,25.46
2022-08-07T08:24:45.456Z,25.63
2022-08-07T08:25:49.192Z,25.78
2022-08-07T08:26:44.006Z,25.24
2022-08-07T08:27:56.457Z,24.89
2022-08-07T08:28:45.070Z,24.53
2022-08-07T08:29:54.114Z,24.55
2022-08-07T08:30:51.158Z,24.74
2022-08-07T08:32:17.521Z,25.01
2022-08-07T08:32:49.025Z,24.97
2022-08-07T08:33:49.596Z,25.22
2022-08-07T08:34:44.850Z,25.34
2022-08-07T08:35:49.970Z,25.48
2022-08-07T08:36:46.275Z,25.75
2022-08-07T08:38:01.736Z,25.71
2022-08-07T08:38:44.948Z,25.90
2022-08-07T08:39:54.876Z,25.63
2022-08-07T08:40:46.845Z,25.46
2022-08-07T08:41:57.311Z,25.85
2022-08-07T08:42:43.860Z,25.96
2022-08-07T08:43:56.269Z,26.24
2022-08-07T08:44:44.748Z,26.53
2022-08-07T08:45:58.957Z,26.49
2022-08-07T08:46:45.938Z,26.29
2022-08-07T08:47:52.403Z,26.29
2022-08-07T08:48:43.782Z,26.11
2022-08-07T08:50:02.126Z,26.28
2022-08-07T08:50:43.763Z,26.31
2022-08-07T08:52:12.971Z,26.53
2022-08-07T08:52:54.276Z,26.86
2022-08-07T08:53:43.736Z,27.11
2022-08-07T08:54:43.721Z,27.42
2022-08-07T08:55:53.262Z,27.39
2022-08-07T08:56:47.302Z,27.09
2022-08-07T08:57:43.702Z,26.87
2022-08-07T08:58:43.680Z,26.79
2022-08-07T08:59:48.039Z,26.59
2022-08-07T09:00:48.650Z,26.78
2022-08-07T09:01:46.447Z,26.81
2022-08-07T09:02:43.818Z,26.81
2022-08-07T09:03:47.352Z,27.18
2022-08-07T09:04:43.621Z,27.21
2022-08-07T09:05:43.617Z,27.24
2022-08-07T09:06:47.871Z,27.24
2022-08-07T09:07:46.400Z,27.53
2022-08-07T09:08:43.578Z,27.83
2022-08-07T09:09:43.574Z,27.93
2022-08-07T09:10:44.244Z,27.95
2022-08-07T09:11:55.449Z,27.83
2022-08-07T09:12:53.430Z,27.93
2022-08-07T09:13:44.565Z,27.61
2022-08-07T09:14:50.998Z,27.27
2022-08-07T09:16:22.880Z,27.53
2022-08-07T09:16:45.649Z,27.55
2022-08-07T09:17:59.505Z,27.68
2022-08-07T09:18:52.998Z,27.88
2022-08-07T09:19:51.609Z,28.01
2022-08-07T09:20:43.461Z,28.28
2022-08-07T09:22:09.713Z,28.35
2022-08-07T09:24:33.848Z,28.38
2022-08-07T09:24:54.825Z,28.51
2022-08-07T09:24:58.995Z,28.50
2022-08-07T09:25:44.432Z,28.51
2022-08-07T09:26:47.909Z,28.42
2022-08-07T09:28:00.711Z,28.18
2022-08-07T09:30:01.830Z,27.55
2022-08-07T09:30:03.873Z,27.69
2022-08-07T09:30:46.469Z,27.68
2022-08-07T09:31:48.601Z,27.46
2022-08-07T09:32:44.364Z,27.88
2022-08-07T09:33:56.769Z,27.84
2022-08-07T09:34:43.329Z,27.68
2022-08-07T09:36:03.326Z,27.86
2022-08-07T09:36:46.745Z,28.24
2022-08-07T09:37:48.162Z,28.36
2022-08-07T09:38:43.281Z,28.11
2022-08-07T09:39:55.488Z,28.05
2022-08-07T09:40:44.296Z,27.27
2022-08-07T09:42:03.217Z,27.09
2022-08-07T09:42:45.579Z,26.68
2022-08-07T09:44:06.092Z,27.13
2022-08-07T09:44:58.656Z,27.69
2022-08-07T09:47:51.179Z,28.23
2022-08-07T09:47:51.427Z,28.57
2022-08-07T09:47:56.157Z,29.23
2022-08-07T09:48:56.104Z,29.69
2022-08-07T09:50:00.934Z,29.92
2022-08-07T09:50:43.167Z,29.67
2022-08-07T09:52:10.470Z,29.51
2022-08-07T09:52:44.175Z,29.35
2022-08-07T09:53:50.111Z,29.57
2022-08-07T09:54:43.125Z,29.70
2022-08-07T09:56:03.650Z,29.51
2022-08-07T09:56:43.104Z,29.55
2022-08-07T09:57:46.617Z,29.26
2022-08-07T09:58:43.081Z,29.08
2022-08-07T10:00:00.258Z,29.27
2022-08-07T10:00:43.064Z,29.37
2022-08-07T10:01:50.954Z,29.57
2022-08-07T10:02:55.072Z,29.54
2022-08-07T10:04:05.692Z,28.80
2022-08-07T10:04:45.925Z,29.02
2022-08-07T10:06:01.324Z,29.37
2022-08-07T10:06:53.884Z,29.63
2022-08-07T10:07:53.801Z,29.86
2022-08-07T10:08:44.019Z,29.84
2022-08-07T10:10:01.131Z,29.17
2022-08-07T10:11:16.916Z,29.17
2022-08-07T10:12:01.259Z,29.67
2022-08-07T10:12:52.661Z,30.16
2022-08-07T10:14:00.337Z,30.26
2022-08-07T10:14:42.944Z,30.46
2022-08-07T10:15:44.761Z,30.45
2022-08-07T10:16:43.180Z,30.21
2022-08-07T10:18:02.690Z,30.32
2022-08-07T10:18:42.887Z,29.33
2022-08-07T10:19:42.874Z,28.76
2022-08-07T10:20:44.443Z,28.74
2022-08-07T10:22:12.664Z,29.27
2022-08-07T10:22:43.090Z,29.35
2022-08-07T10:24:05.648Z,29.18
2022-08-07T10:24:42.827Z,29.69
2022-08-07T10:25:43.624Z,30.22
2022-08-07T10:26:44.194Z,30.22
2022-08-07T10:27:46.045Z,30.23
2022-08-07T10:28:49.518Z,30.21
2022-08-07T10:29:46.018Z,30.56
2022-08-07T10:30:42.772Z,31.07
2022-08-07T10:31:42.978Z,31.07
2022-08-07T10:32:52.512Z,30.94
2022-08-07T10:34:06.143Z,30.57
2022-08-07T10:34:42.735Z,30.25
2022-08-07T10:35:55.205Z,30.34
2022-08-07T10:36:45.503Z,31.01
2022-08-07T10:38:00.132Z,30.59
2022-08-07T10:38:48.362Z,29.08
2022-08-07T10:40:02.662Z,29.67
2022-08-07T10:40:42.677Z,30.07
2022-08-07T10:41:51.773Z,30.70
2022-08-07T10:42:42.757Z,30.45
2022-08-07T10:43:42.650Z,30.53
2022-08-07T10:44:45.127Z,30.70
2022-08-07T10:45:44.610Z,30.38
2022-08-07T10:46:42.761Z,31.00
2022-08-07T10:47:51.498Z,31.50
2022-08-07T10:48:44.154Z,31.49
2022-08-07T10:49:49.444Z,31.13
2022-08-07T10:50:44.857Z,31.20
2022-08-07T10:52:01.825Z,31.59
2022-08-07T10:52:43.593Z,31.52
2022-08-07T10:53:44.983Z,31.75
2022-08-07T10:54:42.553Z,32.09
2022-08-07T10:55:43.561Z,32.09
2022-08-07T10:56:42.523Z,31.99
2022-08-07T10:57:42.512Z,31.53
2022-08-07T10:58:42.508Z,31.57
2022-08-07T10:59:47.561Z,31.95
2022-08-07T11:00:43.262Z,32.40
2022-08-07T11:01:51.717Z,32.78
2022-08-07T11:02:42.516Z,33.40
2022-08-07T11:03:54.966Z,33.24
2022-08-07T11:04:42.447Z,33.57
2022-08-07T11:05:50.646Z,32.68
2022-08-07T11:06:44.482Z,32.28
2022-08-07T11:07:58.853Z,31.68
2022-08-07T11:08:43.437Z,31.53
2022-08-07T11:10:07.979Z,31.99
2022-08-07T11:10:43.417Z,32.29
2022-08-07T11:11:42.776Z,32.40
2022-08-07T11:12:43.332Z,32.21
2022-08-07T11:14:44.399Z,31.97
2022-08-07T11:14:57.343Z,31.65
2022-08-07T11:15:42.347Z,30.88
2022-08-07T11:16:42.334Z,29.84
2022-08-07T11:17:43.529Z,29.26
2022-08-07T11:18:42.386Z,29.66
2022-08-07T11:19:42.304Z,30.40
2022-08-07T11:20:42.321Z,31.07
2022-08-07T11:21:42.831Z,31.53
2022-08-07T11:22:46.223Z,31.41
2022-08-07T11:23:42.270Z,31.79
2022-08-07T11:24:45.555Z,32.05
2022-08-07T11:25:49.814Z,31.67
2022-08-07T11:26:48.319Z,31.88
2022-08-07T11:28:02.628Z,31.92
2022-08-07T11:28:42.425Z,31.78
2022-08-07T11:29:47.278Z,32.51
2022-08-07T11:30:43.222Z,32.85
2022-08-07T11:31:42.245Z,32.93
2022-08-07T11:32:42.271Z,33.33
2022-08-07T11:33:53.526Z,33.59
2022-08-07T11:34:42.565Z,33.79
2022-08-07T11:35:59.093Z,33.63
2022-08-07T11:36:42.143Z,33.35
2022-08-07T11:37:58.497Z,33.26
2022-08-07T11:38:43.154Z,33.29
2022-08-07T11:40:00.991Z,33.15
2022-08-07T11:40:49.453Z,33.15
2022-08-07T11:42:01.955Z,33.05
2022-08-07T11:42:43.147Z,33.33
2022-08-07T11:44:11.001Z,33.29
2022-08-07T11:44:52.584Z,32.62
2022-08-07T11:45:50.065Z,32.41
2022-08-07T11:46:43.085Z,32.81
2022-08-07T11:47:58.880Z,33.20
2022-08-07T11:48:58.774Z,33.29
2022-08-07T11:50:11.250Z,33.21
2022-08-07T11:50:44.615Z,33.34
2022-08-07T11:51:46.706Z,32.63
2022-08-07T11:52:41.995Z,32.56
2022-08-07T11:53:43.259Z,32.90
2022-08-07T11:54:46.316Z,33.12
2022-08-07T11:56:13.983Z,33.35
2022-08-07T11:56:43.011Z,33.59
2022-08-07T11:57:59.321Z,33.81
2022-08-07T11:58:42.962Z,34.19
2022-08-07T12:00:10.083Z,34.52
2022-08-07T12:00:42.945Z,34.46
2022-08-07T12:01:58.639Z,34.18
2022-08-07T12:02:41.938Z,34.19
2022-08-07T12:03:46.002Z,34.26
2022-08-07T12:04:41.889Z,34.45
2022-08-07T12:05:49.244Z,33.82
2022-08-07T12:06:51.736Z,34.09
2022-08-07T12:07:43.080Z,33.86
2022-08-07T12:08:42.553Z,33.89
2022-08-07T12:09:41.836Z,33.43
2022-08-07T12:10:42.186Z,32.54
2022-08-07T12:11:43.393Z,32.16
2022-08-07T12:12:41.808Z,32.24
2022-08-07T12:13:45.013Z,32.53
2022-08-07T12:14:41.788Z,32.96
2022-08-07T12:16:06.803Z,32.88
2022-08-07T12:16:41.778Z,32.68
2022-08-07T12:17:59.756Z,32.84
2022-08-07T12:18:45.225Z,32.77
2022-08-07T12:19:56.346Z,32.69
2022-08-07T12:20:42.762Z,32.80
2022-08-07T12:21:55.796Z,32.85
2022-08-07T12:22:56.575Z,32.71
2022-08-07T12:24:04.886Z,32.85
2022-08-07T12:24:42.721Z,32.91
2022-08-07T12:26:05.473Z,33.20
2022-08-07T12:26:46.970Z,33.12
2022-08-07T12:28:08.960Z,32.49
2022-08-07T12:28:44.916Z,32.65
2022-08-07T12:29:41.644Z,32.36
2022-08-07T12:30:46.808Z,32.61
2022-08-07T12:32:02.594Z,33.09
2022-08-07T12:32:42.643Z,33.52
2022-08-07T12:34:01.226Z,33.12
2022-08-07T12:34:42.129Z,32.78
2022-08-07T12:35:42.615Z,32.85
2022-08-07T12:36:42.166Z,33.28
2022-08-07T12:38:09.294Z,33.49
2022-08-07T12:38:47.429Z,33.59
2022-08-07T12:39:44.401Z,33.84
2022-08-07T12:40:47.607Z,33.41
2022-08-07T12:41:49.391Z,33.03
2022-08-07T12:42:41.526Z,32.13
2022-08-07T12:44:02.284Z,32.14
2022-08-07T12:44:42.993Z,32.41
2022-08-07T12:45:41.501Z,32.85
2022-08-07T12:46:41.509Z,33.18
2022-08-07T12:47:41.483Z,32.62
2022-08-07T12:48:52.394Z,32.16
2022-08-07T12:49:51.422Z,31.71
2022-08-07T12:50:49.338Z,32.17
2022-08-07T12:51:51.088Z,32.40
2022-08-07T12:52:41.433Z,32.59
2022-08-07T12:54:02.961Z,32.83
2022-08-07T12:54:42.489Z,33.12
2022-08-07T12:56:02.626Z,33.52
2022-08-07T12:56:41.806Z,33.18
2022-08-07T12:58:00.954Z,32.51